createdAt,value
2022-10-19T00:01:20.513Z,100849.94
2022-10-19T00:06:20.586Z,100861.28
2022-10-19T00:08:47.321Z,100851.56
2022-10-19T00:11:14.120Z,100857.69
2022-10-19T00:13:40.899Z,100849.75
2022-10-19T00:16:11.472Z,100853.22
2022-10-19T00:18:38.505Z,100854.00
2022-10-19T00:21:06.810Z,100856.63
2022-10-19T00:23:33.860Z,100853.03
2022-10-19T00:26:01.012Z,100859.13
2022-10-19T00:28:27.946Z,100864.31
2022-10-19T00:30:54.677Z,100860.75
2022-10-19T00:33:22.600Z,100856.34
2022-10-19T00:35:51.522Z,100856.34
2022-10-19T00:38:20.411Z,100854.56
2022-10-19T00:40:47.674Z,100852.78
2022-10-19T00:43:17.217Z,100853.63
2022-10-19T00:45:43.930Z,100851.00
2022-10-19T00:48:15.569Z,100843.13
2022-10-19T00:50:43.627Z,100849.25
2022-10-19T00:53:10.785Z,100843.94
2022-10-19T00:55:39.121Z,100841.25
2022-10-19T00:58:06.014Z,100850.06
2022-10-19T01:00:34.185Z,100844.78
2022-10-19T01:03:03.212Z,100844.78
2022-10-19T01:05:31.650Z,100844.72
2022-10-19T01:07:58.364Z,100845.63
2022-10-19T01:10:46.252Z,100845.63
2022-10-19T01:13:44.193Z,100843.81
2022-10-19T01:16:49.317Z,100836.75
2022-10-19T01:19:54.448Z,100837.63
2022-10-19T01:22:45.310Z,100835.03
2022-10-19T01:25:36.195Z,100827.06
2022-10-19T01:28:17.338Z,100821.78
2022-10-19T01:30:56.321Z,100822.56
2022-10-19T01:33:30.549Z,100819.00
2022-10-19T01:36:17.268Z,100821.59
2022-10-19T01:39:02.404Z,100823.41
2022-10-19T01:41:41.196Z,100827.81
2022-10-19T01:44:13.644Z,100827.03
2022-10-19T01:46:43.365Z,100832.31
2022-10-19T01:49:33.259Z,100835.06
2022-10-19T01:52:04.251Z,100842.19
2022-10-19T01:54:38.472Z,100834.31
2022-10-19T01:57:08.750Z,100836.13
2022-10-19T01:59:37.430Z,100827.41
2022-10-19T02:02:07.000Z,100830.97
2022-10-19T02:04:34.806Z,100829.22
2022-10-19T02:07:03.125Z,100820.41
2022-10-19T02:09:30.234Z,100817.81
2022-10-19T02:11:59.558Z,100824.88
2022-10-19T02:14:31.998Z,100822.25
2022-10-19T02:17:06.152Z,100814.34
2022-10-19T02:19:32.902Z,100820.53
2022-10-19T02:21:59.906Z,100827.56
2022-10-19T02:24:26.571Z,100821.44
2022-10-19T02:26:55.602Z,100815.28
2022-10-19T02:29:22.557Z,100812.66
2022-10-19T02:31:49.405Z,100809.19
2022-10-19T02:34:16.138Z,100818.84
2022-10-19T02:36:42.857Z,100813.59
2022-10-19T02:39:09.894Z,100814.47
2022-10-19T02:41:49.359Z,100807.44
2022-10-19T02:44:28.872Z,100808.34
2022-10-19T02:47:09.488Z,100813.63
2022-10-19T02:49:37.818Z,100816.25
2022-10-19T02:52:07.395Z,100820.63
2022-10-19T02:54:34.394Z,100811.81
2022-10-19T02:57:01.219Z,100810.09
2022-10-19T02:59:27.855Z,100807.47
2022-10-19T03:01:54.635Z,100806.63
2022-10-19T03:04:21.271Z,100810.16
2022-10-19T03:06:47.878Z,100803.97
2022-10-19T03:09:14.493Z,100807.50
2022-10-19T03:11:41.135Z,100805.69
2022-10-19T03:14:07.851Z,100805.69
2022-10-19T03:16:34.438Z,100818.00
2022-10-19T03:19:00.981Z,100800.41
2022-10-19T03:21:27.600Z,100795.97
2022-10-19T03:23:54.675Z,100811.81
2022-10-19T03:26:21.359Z,100810.03
2022-10-19T03:28:47.994Z,100790.69
2022-10-19T03:31:14.623Z,100798.56
2022-10-19T03:33:41.221Z,100800.31
2022-10-19T03:36:21.792Z,100797.63
2022-10-19T03:38:52.473Z,100806.34
2022-10-19T03:41:20.877Z,100798.38
2022-10-19T03:43:48.170Z,100793.06
2022-10-19T03:46:15.222Z,100790.38
2022-10-19T03:48:41.899Z,100792.94
2022-10-19T03:51:11.945Z,100792.88
2022-10-19T03:53:39.182Z,100793.69
2022-10-19T03:56:08.351Z,100793.59
2022-10-19T03:58:36.747Z,100800.63
2022-10-19T04:01:09.085Z,100788.28
2022-10-19T04:06:37.590Z,100791.63
2022-10-19T04:09:05.275Z,100797.75
2022-10-19T04:11:33.587Z,100795.09
2022-10-19T04:14:01.130Z,100796.84
2022-10-19T04:16:29.835Z,100803.81
2022-10-19T04:18:57.103Z,100802.09
2022-10-19T04:21:26.274Z,100817.00
2022-10-19T04:23:57.284Z,100806.47
2022-10-19T04:26:23.957Z,100810.00
2022-10-19T04:28:50.620Z,100809.13
2022-10-19T04:31:17.273Z,100819.66
2022-10-19T04:33:43.957Z,100815.31
2022-10-19T04:36:12.282Z,100808.28
2022-10-19T04:38:39.707Z,100796.00
2022-10-19T04:41:10.056Z,100806.56
2022-10-19T04:43:37.258Z,100803.91
2022-10-19T04:46:13.214Z,100811.78
2022-10-19T04:48:41.117Z,100801.22
2022-10-19T04:51:08.817Z,100806.44
2022-10-19T04:53:37.601Z,100816.06
2022-10-19T04:56:06.551Z,100808.13
2022-10-19T04:58:33.128Z,100801.06
2022-10-19T05:00:59.831Z,100808.00
2022-10-19T05:03:26.427Z,100808.84
2022-10-19T05:05:53.408Z,100808.81
2022-10-19T05:08:19.980Z,100805.22
2022-10-19T05:10:47.727Z,100806.97
2022-10-19T05:13:14.576Z,100812.19
2022-10-19T05:15:41.754Z,100815.72
2022-10-19T05:18:08.314Z,100816.63
2022-10-19T05:20:35.079Z,100813.09
2022-10-19T05:23:06.201Z,100807.88
2022-10-19T05:25:34.168Z,100807.84
2022-10-19T05:28:00.781Z,100816.59
2022-10-19T05:30:27.385Z,100819.22
2022-10-19T05:32:53.954Z,100814.84
2022-10-19T05:35:22.711Z,100819.22
2022-10-19T05:37:54.492Z,100818.34
2022-10-19T05:40:21.195Z,100822.78
2022-10-19T05:42:47.810Z,100822.78
2022-10-19T05:45:14.447Z,100824.53
2022-10-19T05:47:41.037Z,100823.63
2022-10-19T05:50:07.963Z,100834.19
2022-10-19T05:52:34.533Z,100831.56
2022-10-19T05:55:01.123Z,100837.72
2022-10-19T05:57:27.715Z,100839.50
2022-10-19T05:59:56.848Z,100835.09
2022-10-19T06:02:23.793Z,100845.66
2022-10-19T06:04:50.754Z,100844.78
2022-10-19T06:07:17.442Z,100848.28
2022-10-19T06:09:44.040Z,100849.16
2022-10-19T06:12:10.783Z,100854.44
2022-10-19T06:14:37.451Z,100857.97
2022-10-19T06:17:04.555Z,100853.59
2022-10-19T06:19:31.182Z,100848.31
2022-10-19T06:21:57.756Z,100845.72
2022-10-19T06:24:24.407Z,100851.88
2022-10-19T06:26:50.997Z,100863.31
2022-10-19T06:29:17.583Z,100865.97
2022-10-19T06:31:44.188Z,100864.22
2022-10-19T06:34:10.833Z,100866.88
2022-10-19T06:36:37.621Z,100874.81
2022-10-19T06:39:04.495Z,100866.00
2022-10-19T06:41:31.852Z,100872.19
2022-10-19T06:43:58.462Z,100871.31
2022-10-19T06:46:26.755Z,100874.84
2022-10-19T06:48:58.641Z,100871.38
2022-10-19T06:51:27.211Z,100877.59
2022-10-19T06:53:57.088Z,100882.03
2022-10-19T06:56:24.876Z,100874.22
2022-10-19T06:58:51.900Z,100873.41
2022-10-19T07:01:18.598Z,100884.13
2022-10-19T07:03:45.376Z,100876.31
2022-10-19T07:06:13.408Z,100880.84
2022-10-19T07:08:42.228Z,100889.75
2022-10-19T07:11:12.312Z,100888.16
2022-10-19T07:13:39.653Z,100881.25
2022-10-19T07:16:15.795Z,100896.28
2022-10-19T07:18:47.152Z,100902.44
2022-10-19T07:21:16.498Z,100897.22
2022-10-19T07:23:47.524Z,100903.50
2022-10-19T07:26:21.440Z,100902.69
2022-10-19T07:28:49.470Z,100908.97
2022-10-19T07:31:22.966Z,100901.94
2022-10-19T07:33:54.090Z,100905.47
2022-10-19T07:36:21.006Z,100912.66
2022-10-19T07:38:47.685Z,100900.28
2022-10-19T07:41:16.542Z,100909.16
2022-10-19T07:43:45.639Z,100909.25
2022-10-19T07:46:18.788Z,100921.59
2022-10-19T07:48:46.257Z,100909.31
2022-10-19T07:51:15.483Z,100910.09
2022-10-19T07:53:42.853Z,100903.91
2022-10-19T07:56:11.314Z,100910.03
2022-10-19T07:58:38.301Z,100914.41
2022-10-19T08:01:08.188Z,100914.41
2022-10-19T08:06:22.572Z,100913.63
2022-10-19T08:08:50.020Z,100913.72
2022-10-19T08:11:22.885Z,100919.94
2022-10-19T08:13:50.042Z,100920.81
2022-10-19T08:16:34.509Z,100921.69
2022-10-19T08:19:04.129Z,100920.81
2022-10-19T08:21:31.504Z,100916.47
2022-10-19T08:23:58.454Z,100923.53
2022-10-19T08:26:25.625Z,100925.31
2022-10-19T08:28:52.375Z,100910.38
2022-10-19T08:31:22.688Z,100909.44
2022-10-19T08:33:50.999Z,100920.06
2022-10-19T08:36:19.860Z,100920.09
2022-10-19T08:38:48.542Z,100918.34
2022-10-19T08:41:41.503Z,100921.91
2022-10-19T08:44:29.213Z,100933.38
2022-10-19T08:47:14.743Z,100914.84
2022-10-19T08:49:43.215Z,100920.16
2022-10-19T08:52:34.930Z,100908.69
2022-10-19T08:55:13.103Z,100906.06
2022-10-19T08:58:06.897Z,100914.84
2022-10-19T09:00:44.696Z,100915.72
2022-10-19T09:03:37.768Z,100922.78
2022-10-19T09:06:27.150Z,100919.28
2022-10-19T09:08:55.866Z,100921.06
2022-10-19T09:11:29.786Z,100922.81
2022-10-19T09:14:15.464Z,100914.81
2022-10-19T09:16:43.039Z,100923.66
2022-10-19T09:19:26.313Z,100928.09
2022-10-19T09:21:58.782Z,100927.16
2022-10-19T09:24:36.958Z,100940.34
2022-10-19T09:27:03.996Z,100941.28
2022-10-19T09:29:42.448Z,100941.28
2022-10-19T09:32:20.365Z,100943.91
2022-10-19T09:34:53.415Z,100944.72
2022-10-19T09:37:25.893Z,100937.69
2022-10-19T09:39:55.133Z,100943.03
2022-10-19T09:42:29.581Z,100941.28
2022-10-19T09:44:58.517Z,100937.78
2022-10-19T09:47:37.885Z,100950.13
2022-10-19T09:50:21.225Z,100947.47
2022-10-19T09:53:04.077Z,100948.38
2022-10-19T09:55:41.471Z,100954.53
2022-10-19T09:58:14.294Z,100953.59
2022-10-19T10:00:46.857Z,100949.16
2022-10-19T10:03:28.753Z,100952.69
2022-10-19T10:06:04.197Z,100961.47
2022-10-19T10:08:34.796Z,100953.53
2022-10-19T10:11:22.527Z,100950.00
2022-10-19T10:13:51.681Z,100958.88
2022-10-19T10:16:22.278Z,100969.50
2022-10-19T10:18:58.146Z,100958.94
2022-10-19T10:21:26.220Z,100955.38
2022-10-19T10:24:17.404Z,100951.78
2022-10-19T10:26:45.427Z,100957.91
2022-10-19T10:29:21.806Z,100952.63
2022-10-19T10:31:53.718Z,100951.78
2022-10-19T10:34:51.794Z,100950.03
2022-10-19T10:37:23.765Z,100954.50
2022-10-19T10:39:58.945Z,100950.88
2022-10-19T10:42:33.554Z,100944.47
2022-10-19T10:45:01.024Z,100948.41
2022-10-19T10:47:29.004Z,100942.66
2022-10-19T10:50:06.627Z,100944.56
2022-10-19T10:52:34.056Z,100945.75
2022-10-19T10:55:19.157Z,100935.44
2022-10-19T10:57:52.961Z,100947.22
2022-10-19T11:00:22.073Z,100940.25
2022-10-19T11:03:13.079Z,100946.47
2022-10-19T11:05:46.788Z,100943.81
2022-10-19T11:08:21.238Z,100938.53
2022-10-19T11:11:16.689Z,100949.13
2022-10-19T11:13:52.958Z,100945.66
2022-10-19T11:16:27.050Z,100951.00
2022-10-19T11:18:58.971Z,100950.13
2022-10-19T11:21:47.259Z,100950.16
2022-10-19T11:24:27.478Z,100945.72
2022-10-19T11:26:54.021Z,100949.19
2022-10-19T11:30:03.219Z,100947.44
2022-10-19T11:32:52.616Z,100944.84
2022-10-19T11:35:49.769Z,100951.94
2022-10-19T11:38:51.735Z,100942.22
2022-10-19T11:41:30.234Z,100953.66
2022-10-19T11:44:20.729Z,100961.63
2022-10-19T11:47:21.451Z,100958.09
2022-10-19T11:53:27.461Z,100948.41
2022-10-19T11:56:03.104Z,100943.13
2022-10-19T11:59:07.883Z,100941.31
2022-10-19T12:01:53.134Z,100941.28
2022-10-19T12:04:57.425Z,100942.03
2022-10-19T12:07:56.806Z,100950.06
2022-10-19T12:10:52.162Z,100947.44
2022-10-19T12:13:37.412Z,100959.00
2022-10-19T12:16:06.046Z,100946.66
2022-10-19T12:18:43.453Z,100961.59
2022-10-19T12:21:26.425Z,100958.94
2022-10-19T12:23:54.429Z,100955.38
2022-10-19T12:26:22.515Z,100946.47
2022-10-19T12:29:02.010Z,100951.84
2022-10-19T12:31:30.673Z,100960.63
2022-10-19T12:34:20.760Z,100958.88
2022-10-19T12:37:08.679Z,100956.28
2022-10-19T12:39:40.905Z,100947.44
2022-10-19T12:42:27.703Z,100953.66
2022-10-19T12:45:18.958Z,100958.06
2022-10-19T12:48:12.924Z,100956.31
2022-10-19T12:50:48.640Z,100963.34
2022-10-19T12:53:36.259Z,100964.19
2022-10-19T12:56:07.737Z,100956.31
2022-10-19T12:58:43.484Z,100956.31
2022-10-19T13:01:19.597Z,100952.78
2022-10-19T13:03:47.535Z,100955.38
2022-10-19T13:06:29.828Z,100952.72
2022-10-19T13:09:00.798Z,100952.66
2022-10-19T13:11:27.651Z,100948.19
2022-10-19T13:14:00.786Z,100950.84
2022-10-19T13:16:30.105Z,100952.59
2022-10-19T13:18:59.638Z,100953.50
2022-10-19T13:21:51.067Z,100957.94
2022-10-19T13:24:26.033Z,100962.38
2022-10-19T13:27:04.832Z,100949.16
2022-10-19T13:29:37.249Z,100950.94
2022-10-19T13:32:43.537Z,100950.09
2022-10-19T13:35:28.788Z,100954.50
2022-10-19T13:38:17.259Z,100955.38
2022-10-19T13:40:49.708Z,100951.84
2022-10-19T13:43:25.153Z,100940.38
2022-10-19T13:46:15.041Z,100950.97
2022-10-19T13:49:19.195Z,100950.97
2022-10-19T13:51:59.410Z,100946.63
2022-10-19T13:54:56.114Z,100942.19
2022-10-19T13:58:02.023Z,100943.94
2022-10-19T14:00:48.854Z,100939.50
2022-10-19T14:03:35.678Z,100943.91
2022-10-19T14:06:28.512Z,100950.97
2022-10-19T14:09:43.570Z,100936.91
2022-10-19T14:12:19.004Z,100936.00
2022-10-19T14:14:45.560Z,100932.47
2022-10-19T14:17:21.526Z,100926.34
2022-10-19T14:19:51.567Z,100932.50
2022-10-19T14:22:36.270Z,100928.97
2022-10-19T14:25:19.514Z,100930.75
2022-10-19T14:27:47.953Z,100921.91
2022-10-19T14:30:31.739Z,100937.78
2022-10-19T14:33:02.301Z,100931.66
2022-10-19T14:35:38.229Z,100929.84
2022-10-19T14:38:09.152Z,100935.13
2022-10-19T14:40:41.340Z,100939.50
2022-10-19T14:43:34.680Z,100942.06
2022-10-19T14:46:07.288Z,100943.81
2022-10-19T14:48:35.719Z,100941.13
2022-10-19T14:51:05.354Z,100948.16
2022-10-19T14:53:39.934Z,100935.81
2022-10-19T14:56:21.559Z,100934.88
2022-10-19T14:58:53.896Z,100930.44
2022-10-19T15:01:21.765Z,100922.50
2022-10-19T15:03:50.062Z,100925.13
2022-10-19T15:06:20.022Z,100925.97
2022-10-19T15:09:12.151Z,100932.94
2022-10-19T15:11:47.347Z,100928.50
2022-10-19T15:14:28.327Z,100931.91
2022-10-19T15:17:00.925Z,100927.47
2022-10-19T15:19:35.416Z,100933.59
2022-10-19T15:22:23.805Z,100931.72
2022-10-19T15:25:02.298Z,100932.56
2022-10-19T15:27:42.010Z,100930.75
2022-10-19T15:30:17.507Z,100936.00
2022-10-19T15:32:46.528Z,100927.16
2022-10-19T15:35:25.118Z,100935.09
2022-10-19T15:38:01.915Z,100938.56
2022-10-19T15:40:35.685Z,100937.69
2022-10-19T15:43:31.128Z,100935.03
2022-10-19T15:46:00.901Z,100939.44
2022-10-19T15:48:44.430Z,100943.81
2022-10-19T15:51:29.178Z,100941.16
2022-10-19T15:53:58.593Z,100935.00
2022-10-19T15:56:28.262Z,100944.66
2022-10-19T15:58:58.262Z,100941.16
2022-10-19T16:01:31.470Z,100941.16
2022-10-19T16:03:58.374Z,100945.53
2022-10-19T16:06:27.857Z,100938.50
2022-10-19T16:08:54.566Z,100946.41
2022-10-19T16:11:23.264Z,100948.13
2022-10-19T16:13:50.235Z,100952.56
2022-10-19T16:16:24.829Z,100944.59
2022-10-19T16:18:52.186Z,100941.94
2022-10-19T16:21:21.050Z,100940.16
2022-10-19T16:23:47.929Z,100939.22
2022-10-19T16:26:16.632Z,100950.66
2022-10-19T16:28:43.974Z,100947.13
2022-10-19T16:31:10.670Z,100959.44
2022-10-19T16:33:37.558Z,100972.53
2022-10-19T16:36:08.607Z,100979.56
2022-10-19T16:38:36.444Z,100988.28
2022-10-19T16:41:04.908Z,100988.28
2022-10-19T16:43:31.535Z,100990.91
2022-10-19T16:45:58.103Z,100989.16
2022-10-19T16:48:25.645Z,100993.56
2022-10-19T16:51:07.597Z,100989.16
2022-10-19T16:53:35.357Z,100996.16
2022-10-19T16:56:10.285Z,100994.41
2022-10-19T16:58:37.437Z,100995.31
2022-10-19T17:01:08.050Z,100996.19
2022-10-19T17:03:34.787Z,101000.59
2022-10-19T17:06:06.018Z,101001.44
2022-10-19T17:08:37.355Z,100997.94
2022-10-19T17:11:20.862Z,101007.53
2022-10-19T17:13:49.327Z,101010.16
2022-10-19T17:16:17.626Z,101009.22
2022-10-19T17:18:44.442Z,101006.53
2022-10-19T17:21:16.436Z,101021.47
2022-10-19T17:23:44.103Z,101022.31
2022-10-19T17:26:12.168Z,101020.53
2022-10-19T17:28:40.434Z,101021.31
2022-10-19T17:31:10.572Z,101031.84
2022-10-19T17:33:39.417Z,101030.88
2022-10-19T17:36:15.366Z,101033.41
2022-10-19T17:38:42.147Z,101042.97
2022-10-19T17:41:11.926Z,101049.03
2022-10-19T17:43:41.251Z,101055.06
2022-10-19T17:46:09.879Z,101057.53
2022-10-19T17:48:40.282Z,101056.56
2022-10-19T17:51:10.877Z,101045.91
2022-10-19T17:53:39.165Z,101061.59
2022-10-19T17:56:07.707Z,101050.06
2022-10-19T17:58:39.052Z,101052.59
2022-10-19T18:01:07.275Z,101055.03
2022-10-19T18:03:34.973Z,101065.38
2022-10-19T18:06:10.902Z,101057.28
2022-10-19T18:08:40.467Z,101060.63
2022-10-19T18:11:11.023Z,101062.19
2022-10-19T18:16:45.709Z,101064.31
2022-10-19T18:19:14.594Z,101058.84
2022-10-19T18:21:43.909Z,101073.50
2022-10-19T18:24:19.739Z,101069.84
2022-10-19T18:26:47.920Z,101071.41
2022-10-19T18:29:21.047Z,101067.72
2022-10-19T18:31:53.068Z,101079.81
2022-10-19T18:34:23.662Z,101072.56
2022-10-19T18:36:50.555Z,101069.78
2022-10-19T18:39:18.009Z,101080.94
2022-10-19T18:41:44.639Z,101070.25
2022-10-19T18:44:13.250Z,101062.19
2022-10-19T18:46:40.427Z,101069.84
2022-10-19T18:49:08.661Z,101067.91
2022-10-19T18:51:35.914Z,101063.34
2022-10-19T18:54:02.571Z,101073.66
2022-10-19T18:56:33.566Z,101072.56
2022-10-19T18:59:00.202Z,101069.78
2022-10-19T19:01:28.422Z,101070.41
2022-10-19T19:04:04.493Z,101068.47
2022-10-19T19:06:31.781Z,101076.16
2022-10-19T19:09:01.166Z,101075.16
2022-10-19T19:11:36.735Z,101074.06
2022-10-19T19:14:12.237Z,101081.63
2022-10-19T19:16:39.887Z,101085.78
2022-10-19T19:19:08.688Z,101089.16
2022-10-19T19:21:36.674Z,101082.91
2022-10-19T19:24:05.673Z,101084.53
2022-10-19T19:26:35.114Z,101087.16
2022-10-19T19:29:02.670Z,101081.81
2022-10-19T19:31:29.571Z,101084.38
2022-10-19T19:33:56.510Z,101081.66
2022-10-19T19:36:23.077Z,101081.75
2022-10-19T19:38:51.876Z,101086.88
2022-10-19T19:41:18.523Z,101092.84
2022-10-19T19:43:45.211Z,101089.94
2022-10-19T19:46:14.642Z,101092.44
2022-10-19T19:48:43.395Z,101097.47
2022-10-19T19:51:17.693Z,101090.38
2022-10-19T19:53:45.016Z,101096.47
2022-10-19T19:56:13.541Z,101092.84
2022-10-19T19:58:41.223Z,101098.66
2022-10-19T20:01:17.039Z,101101.88
2022-10-19T20:03:43.906Z,101105.28
2022-10-19T20:06:10.993Z,101112.22
2022-10-19T20:08:38.295Z,101108.50
2022-10-19T20:11:08.235Z,101104.72
2022-10-19T20:13:35.945Z,101109.84
2022-10-19T20:16:17.518Z,101104.44
2022-10-19T20:18:46.177Z,101107.00
2022-10-19T20:21:13.337Z,101111.19
2022-10-19T20:23:40.122Z,101116.25
2022-10-19T20:26:09.527Z,101114.59
2022-10-19T20:28:36.170Z,101108.41
2022-10-19T20:31:08.812Z,101115.28
2022-10-19T20:33:37.763Z,101113.34
2022-10-19T20:36:12.922Z,101107.06
2022-10-19T20:38:41.786Z,101108.69
2022-10-19T20:41:09.945Z,101114.78
2022-10-19T20:43:39.868Z,101108.19
2022-10-19T20:46:10.350Z,101110.28
2022-10-19T20:48:37.983Z,101120.69
2022-10-19T20:51:10.170Z,101118.25
2022-10-19T20:53:36.874Z,101114.22
2022-10-19T20:56:09.016Z,101117.34
2022-10-19T20:58:39.238Z,101118.72
2022-10-19T21:01:17.519Z,101112.22
2022-10-19T21:03:56.125Z,101118.13
2022-10-19T21:06:26.498Z,101132.59
2022-10-19T21:08:53.512Z,101132.47
2022-10-19T21:11:28.813Z,101135.78
2022-10-19T21:13:57.356Z,101133.84
2022-10-19T21:16:27.604Z,101130.28
2022-10-19T21:18:57.331Z,101133.00
2022-10-19T21:21:29.317Z,101132.09
2022-10-19T21:24:02.558Z,101132.88
2022-10-19T21:26:29.268Z,101134.94
2022-10-19T21:28:56.129Z,101137.63
2022-10-19T21:31:24.473Z,101133.19
2022-10-19T21:33:51.865Z,101126.22
2022-10-19T21:36:19.502Z,101130.78
2022-10-19T21:38:46.098Z,101132.72
2022-10-19T21:41:20.844Z,101133.88
2022-10-19T21:43:50.504Z,101135.88
2022-10-19T21:46:20.145Z,101132.72
2022-10-19T21:48:47.461Z,101141.22
2022-10-19T21:51:17.026Z,101139.34
2022-10-19T21:53:44.309Z,101148.91
2022-10-19T21:56:10.938Z,101145.28
2022-10-19T21:58:37.507Z,101148.56
2022-10-19T22:01:05.611Z,101144.91
2022-10-19T22:03:32.315Z,101148.28
2022-10-19T22:05:58.941Z,101147.28
2022-10-19T22:08:26.200Z,101146.44
2022-10-19T22:10:53.178Z,101145.47
2022-10-19T22:13:19.767Z,101144.38
2022-10-19T22:15:46.429Z,101143.34
2022-10-19T22:18:13.108Z,101139.72
2022-10-19T22:20:41.470Z,101147.31
2022-10-19T22:23:08.560Z,101153.16
2022-10-19T22:25:35.791Z,101152.09
2022-10-19T22:28:02.584Z,101156.78
2022-10-19T22:30:29.259Z,101151.31
2022-10-19T22:32:56.110Z,101155.34
2022-10-19T22:35:22.702Z,101154.16
2022-10-19T22:37:49.258Z,101159.25
2022-10-19T22:40:15.810Z,101162.53
2022-10-19T22:42:42.395Z,101162.34
2022-10-19T22:45:09.249Z,101174.31
2022-10-19T22:47:35.854Z,101167.13
2022-10-19T22:50:02.484Z,101165.22
2022-10-19T22:52:29.068Z,101165.16
2022-10-19T22:54:55.674Z,101161.50
2022-10-19T22:57:22.504Z,101164.91
2022-10-19T22:59:49.182Z,101168.53
2022-10-19T23:02:15.809Z,101171.25
2022-10-19T23:04:42.382Z,101167.91
2022-10-19T23:07:09.003Z,101161.13
2022-10-19T23:09:35.579Z,101162.13
2022-10-19T23:12:02.135Z,101163.44
2022-10-19T23:14:28.812Z,101174.59
2022-10-19T23:16:55.520Z,101167.63
2022-10-19T23:19:22.116Z,101165.00
2022-10-19T23:21:48.760Z,101165.31
2022-10-19T23:24:15.323Z,101166.56
2022-10-19T23:26:41.901Z,101158.19
2022-10-19T23:29:08.468Z,101163.84
2022-10-19T23:31:35.105Z,101159.41
2022-10-19T23:34:01.705Z,101153.34
2022-10-19T23:36:29.286Z,101153.41
2022-10-19T23:38:57.137Z,101154.88
2022-10-19T23:41:24.132Z,101153.63
2022-10-19T23:43:50.781Z,101144.25
2022-10-19T23:46:17.602Z,101142.00
2022-10-19T23:48:44.225Z,101147.84
2022-10-19T23:51:16.670Z,101149.25
2022-10-19T23:53:45.325Z,101152.41
2022-10-19T23:56:28.076Z,101145.06
2022-10-19T23:58:55.219Z,101149.19
